Time;durP1;ratioP1;P1;durP2;ratioP2;P2;SDS_P1;SDS_P2;PMS_P1;PMS_P2;Temp;Humidity;BMP_temperature;BMP_pressure;BME280_temperature;BME280_humidity;BME280_pressure;Samples;Min_cycle;Max_cycle;Signal;HPM_P1;HPM_P2
2022/07/24 00:01:36;;;;;;;7.30;6.00;;;21.90;94.10;;;;;;5034520;28;20611;-76
2022/07/24 00:04:03;;;;;;;7.27;5.20;;;21.90;94.60;;;;;;5033136;28;20177;-76
2022/07/24 00:06:28;;;;;;;6.47;5.87;;;21.90;94.90;;;;;;5038728;28;20568;-75
2022/07/24 00:08:54;;;;;;;5.20;4.70;;;22.00;94.90;;;;;;5034431;28;20618;-76
2022/07/24 00:11:20;;;;;;;6.23;5.63;;;21.90;95.20;;;;;;5033068;28;20634;-76
2022/07/24 00:13:46;;;;;;;6.30;5.20;;;22.00;95.60;;;;;;5033064;28;20229;-76
2022/07/24 00:16:12;;;;;;;5.63;3.90;;;22.00;95.20;;;;;;5033963;28;20564;-76
2022/07/24 00:18:38;;;;;;;5.13;4.10;;;22.00;95.20;;;;;;5032769;28;20250;-76
2022/07/24 00:21:04;;;;;;;4.87;4.37;;;22.00;95.30;;;;;;5032937;28;20161;-75
2022/07/24 00:23:30;;;;;;;4.67;4.20;;;22.00;95.30;;;;;;5032736;28;20573;-76
2022/07/24 00:25:56;;;;;;;5.80;4.60;;;22.00;95.50;;;;;;5033979;28;20572;-76
2022/07/24 00:28:22;;;;;;;5.37;4.10;;;22.00;95.60;;;;;;5033768;28;20929;-77
2022/07/24 00:30:48;;;;;;;4.67;4.27;;;22.00;95.60;;;;;;5033927;28;20679;-76
2022/07/24 00:33:16;;;;;;;5.50;4.50;;;22.00;95.70;;;;;;5033831;28;20162;-77
2022/07/24 00:35:43;;;;;;;5.30;4.80;;;21.90;96.20;;;;;;5033797;28;20671;-76
2022/07/24 00:38:09;;;;;;;7.50;4.30;;;21.90;96.20;;;;;;5033792;28;21169;-76
2022/07/24 00:40:35;;;;;;;4.27;3.80;;;21.90;96.40;;;;;;5033923;28;20664;-76
2022/07/24 00:43:02;;;;;;;6.80;4.70;;;21.90;96.50;;;;;;5038256;28;20607;-76
2022/07/24 00:45:28;;;;;;;5.00;4.60;;;21.80;97.00;;;;;;5032359;28;20178;-75
2022/07/24 00:47:54;;;;;;;5.30;4.77;;;21.80;96.90;;;;;;5033582;28;20567;-76
2022/07/24 00:50:21;;;;;;;5.30;4.60;;;21.80;97.30;;;;;;5033591;28;20652;-76
2022/07/24 00:52:47;;;;;;;5.90;4.53;;;21.80;97.40;;;;;;5033729;28;20577;-77
2022/07/24 00:55:13;;;;;;;4.93;4.50;;;21.70;97.60;;;;;;5033363;28;20719;-76
2022/07/24 00:57:39;;;;;;;4.20;3.80;;;21.70;97.70;;;;;;5033730;28;20553;-76
2022/07/24 01:00:08;;;;;;;6.47;5.00;;;21.70;98.00;;;;;;5033423;28;20584;-76
2022/07/24 01:02:34;;;;;;;5.47;4.97;;;21.70;98.30;;;;;;5033568;28;20663;-76
2022/07/24 01:05:00;;;;;;;4.73;4.10;;;21.60;98.50;;;;;;5015455;28;20579;-76
2022/07/24 01:07:26;;;;;;;5.53;4.70;;;21.70;98.40;;;;;;5033395;28;20923;-76
2022/07/24 01:09:52;;;;;;;5.30;4.80;;;21.60;98.50;;;;;;5031964;28;20596;-76
2022/07/24 01:12:18;;;;;;;6.20;4.40;;;21.60;98.60;;;;;;5033344;28;20580;-76
2022/07/24 01:14:44;;;;;;;5.53;4.83;;;21.60;98.80;;;;;;5031686;28;20632;-75
2022/07/24 01:17:11;;;;;;;5.97;4.70;;;21.50;98.90;;;;;;5033397;28;20576;-76
2022/07/24 01:19:36;;;;;;;5.23;4.83;;;21.50;99.00;;;;;;5033930;28;20604;-76
2022/07/24 01:22:03;;;;;;;6.37;4.37;;;21.50;99.30;;;;;;5032267;28;20659;-76
2022/07/24 01:24:29;;;;;;;7.13;4.20;;;21.50;99.40;;;;;;5034078;28;20679;-76
2022/07/24 01:26:55;;;;;;;5.57;4.70;;;21.50;99.70;;;;;;5053044;22;20659;-74
2022/07/24 01:29:21;;;;;;;5.13;4.63;;;21.50;99.60;;;;;;5047984;28;20609;-74
2022/07/24 01:31:47;;;;;;;6.00;4.00;;;21.50;99.70;;;;;;5042021;28;20166;-74
2022/07/24 01:34:12;;;;;;;4.83;4.43;;;21.40;99.80;;;;;;5043942;28;20650;-74
2022/07/24 01:36:39;;;;;;;4.27;3.87;;;21.40;99.90;;;;;;5044895;28;20620;-74
2022/07/24 01:39:05;;;;;;;6.77;4.80;;;21.40;99.90;;;;;;5043235;28;20253;-74
2022/07/24 01:41:30;;;;;;;4.60;4.20;;;21.40;99.90;;;;;;5037719;28;20596;-73
2022/07/24 01:43:56;;;;;;;5.97;5.30;;;21.30;99.90;;;;;;5050756;28;20934;-74
2022/07/24 01:46:22;;;;;;;5.90;4.77;;;21.30;99.90;;;;;;5043248;28;20596;-74
2022/07/24 01:48:48;;;;;;;5.10;4.60;;;21.30;99.90;;;;;;5043406;28;20575;-74
2022/07/24 01:51:14;;;;;;;5.67;5.13;;;21.30;99.90;;;;;;5033825;28;20177;-74
2022/07/24 01:53:40;;;;;;;5.60;5.10;;;21.20;99.90;;;;;;5051164;28;20619;-74
2022/07/24 01:56:06;;;;;;;4.70;4.30;;;21.20;99.90;;;;;;5051905;28;20294;-74
2022/07/24 01:58:32;;;;;;;4.63;4.17;;;21.20;99.90;;;;;;5052223;28;20678;-75
2022/07/24 02:00:58;;;;;;;5.23;4.73;;;21.20;99.90;;;;;;5051961;28;20564;-75
2022/07/24 02:03:24;;;;;;;4.83;4.23;;;21.20;99.90;;;;;;5052486;28;20311;-74
2022/07/24 02:05:50;;;;;;;4.90;4.50;;;21.10;99.90;;;;;;5050523;28;20674;-75
2022/07/24 02:08:16;;;;;;;5.30;4.80;;;21.10;99.90;;;;;;5050806;28;20181;-75
2022/07/24 02:10:42;;;;;;;7.10;4.67;;;21.10;99.90;;;;;;5051821;28;20165;-75
2022/07/24 02:13:08;;;;;;;5.13;4.60;;;21.10;99.90;;;;;;5050807;28;20177;-75
2022/07/24 02:15:34;;;;;;;4.87;4.47;;;21.10;99.90;;;;;;5051653;28;20668;-75
2022/07/24 02:18:01;;;;;;;6.03;4.70;;;21.10;99.90;;;;;;5051918;28;20191;-75
2022/07/24 02:20:28;;;;;;;6.03;5.33;;;21.00;99.90;;;;;;5051777;28;20560;-75
2022/07/24 02:22:54;;;;;;;5.07;4.57;;;21.00;99.90;;;;;;5033967;28;21091;-75
2022/07/24 02:25:20;;;;;;;4.70;3.90;;;21.00;99.90;;;;;;5051681;28;21149;-75
2022/07/24 02:27:46;;;;;;;5.17;4.77;;;21.00;99.90;;;;;;5050407;28;20615;-75
2022/07/24 02:30:16;;;;;;;5.40;4.90;;;21.00;99.90;;;;;;5050531;28;21130;-75
2022/07/24 02:32:42;;;;;;;4.87;4.47;;;20.90;99.90;;;;;;5051687;28;20625;-74
2022/07/24 02:35:08;;;;;;;7.13;4.37;;;20.90;99.90;;;;;;5050381;28;20619;-75
2022/07/24 02:37:39;;;;;;;4.93;4.50;;;20.90;99.90;;;;;;5049662;28;21204;-75
2022/07/24 02:40:07;;;;;;;5.40;4.90;;;20.90;99.90;;;;;;5051671;28;20981;-74
2022/07/24 02:42:32;;;;;;;6.07;5.57;;;20.80;99.90;;;;;;5050486;28;20574;-74
2022/07/24 02:44:58;;;;;;;5.93;5.30;;;20.80;99.90;;;;;;5051338;28;20567;-73
2022/07/24 02:47:24;;;;;;;5.37;4.87;;;20.70;99.90;;;;;;5051632;28;20599;-73
2022/07/24 02:49:50;;;;;;;5.50;5.03;;;20.70;99.90;;;;;;5051554;28;20180;-74
2022/07/24 02:52:15;;;;;;;4.83;4.33;;;20.60;99.90;;;;;;5051507;28;20169;-74
2022/07/24 02:54:41;;;;;;;5.57;4.40;;;20.60;99.90;;;;;;5051356;28;20676;-74
2022/07/24 02:57:07;;;;;;;4.90;4.50;;;20.60;99.90;;;;;;5051700;28;20189;-74
2022/07/24 02:59:33;;;;;;;4.90;4.40;;;20.60;99.90;;;;;;5051632;28;20654;-74
2022/07/24 03:01:58;;;;;;;5.57;5.07;;;20.60;99.90;;;;;;5051645;28;20532;-74
2022/07/24 03:04:24;;;;;;;5.57;5.07;;;20.50;99.90;;;;;;5051378;28;20184;-73
2022/07/24 03:06:50;;;;;;;6.07;4.83;;;20.50;99.90;;;;;;5051255;28;20196;-74
2022/07/24 03:09:16;;;;;;;6.13;4.90;;;20.50;99.90;;;;;;5051428;28;20972;-74
2022/07/24 03:11:41;;;;;;;4.97;4.50;;;20.50;99.90;;;;;;5051354;28;20698;-74
2022/07/24 03:14:07;;;;;;;4.53;4.03;;;20.40;99.90;;;;;;5050894;28;20200;-74
2022/07/24 03:16:33;;;;;;;5.53;5.03;;;20.40;99.90;;;;;;5049916;28;20532;-74
2022/07/24 03:18:59;;;;;;;4.67;4.27;;;20.40;99.90;;;;;;5051173;28;20161;-74
2022/07/24 03:21:25;;;;;;;4.67;4.27;;;20.40;99.90;;;;;;5051040;28;20193;-74
2022/07/24 03:23:50;;;;;;;4.17;3.87;;;20.40;99.90;;;;;;5051183;28;20204;-74
2022/07/24 03:26:16;;;;;;;5.17;4.67;;;20.30;99.90;;;;;;5050936;28;20616;-75
2022/07/24 03:28:42;;;;;;;4.50;4.10;;;20.30;99.90;;;;;;5051116;28;20204;-74
2022/07/24 03:31:07;;;;;;;5.60;4.47;;;20.30;99.90;;;;;;5049922;28;20238;-74
2022/07/24 03:33:33;;;;;;;6.67;5.40;;;20.30;99.90;;;;;;5050930;28;20292;-74
2022/07/24 03:35:59;;;;;;;5.47;4.90;;;20.30;99.90;;;;;;5050945;28;20162;-74
2022/07/24 03:38:25;;;;;;;5.20;4.70;;;20.30;99.90;;;;;;5050954;28;20169;-74
2022/07/24 03:40:51;;;;;;;4.97;4.53;;;20.30;99.90;;;;;;5051081;28;20252;-74
2022/07/24 03:43:17;;;;;;;6.10;5.60;;;20.30;99.90;;;;;;5049686;28;20666;-74
2022/07/24 03:45:43;;;;;;;5.20;4.80;;;20.30;99.90;;;;;;5050874;28;20582;-74
2022/07/24 03:48:09;;;;;;;7.47;6.77;;;20.30;99.90;;;;;;5050930;28;20225;-74
2022/07/24 03:50:35;;;;;;;4.53;4.13;;;20.30;99.90;;;;;;5053622;28;20201;-74
2022/07/24 03:53:01;;;;;;;5.17;4.70;;;20.30;99.90;;;;;;5054669;28;21141;-74
2022/07/24 03:55:27;;;;;;;6.27;5.77;;;20.30;99.90;;;;;;5053179;28;20200;-74
2022/07/24 03:57:53;;;;;;;6.20;5.60;;;20.30;99.90;;;;;;5054651;28;20621;-74
2022/07/24 04:00:18;;;;;;;5.67;5.17;;;20.20;99.90;;;;;;5054464;28;20565;-74
2022/07/24 04:02:44;;;;;;;6.07;5.43;;;20.20;99.90;;;;;;5054558;28;20616;-74
2022/07/24 04:05:12;;;;;;;4.93;4.60;;;20.30;99.90;;;;;;5053907;28;20177;-74
2022/07/24 04:07:38;;;;;;;5.23;4.83;;;20.20;99.90;;;;;;5053199;28;20564;-74
2022/07/24 04:10:06;;;;;;;10.00;5.20;;;20.30;99.90;;;;;;5054251;28;21058;-74
2022/07/24 04:12:32;;;;;;;4.60;4.07;;;20.30;99.90;;;;;;5054244;28;20586;-74
2022/07/24 04:14:58;;;;;;;6.70;4.80;;;20.30;99.90;;;;;;5054093;28;21237;-74
2022/07/24 04:17:24;;;;;;;6.00;5.40;;;20.30;99.90;;;;;;5054137;28;20619;-74
2022/07/24 04:19:50;;;;;;;5.70;5.20;;;20.30;99.90;;;;;;5053855;28;20180;-74
2022/07/24 04:22:15;;;;;;;5.20;4.60;;;20.30;99.90;;;;;;5054289;28;20606;-74
2022/07/24 04:24:41;;;;;;;5.43;4.93;;;20.30;99.90;;;;;;5053891;28;20564;-74
2022/07/24 04:27:07;;;;;;;5.83;5.27;;;20.30;99.90;;;;;;5052655;28;20222;-74
2022/07/24 04:29:33;;;;;;;4.93;4.43;;;20.30;99.90;;;;;;5053998;28;20277;-74
2022/07/24 04:31:58;;;;;;;5.70;5.20;;;20.40;99.90;;;;;;5054327;28;20551;-75
2022/07/24 04:34:24;;;;;;;5.10;4.70;;;20.30;99.90;;;;;;5053470;28;20232;-74
2022/07/24 04:36:50;;;;;;;5.00;4.60;;;20.30;99.90;;;;;;5053773;28;20722;-74
2022/07/24 04:39:16;;;;;;;4.70;4.30;;;20.40;99.90;;;;;;5053787;28;20173;-74
2022/07/24 04:41:41;;;;;;;5.20;4.70;;;20.40;99.90;;;;;;5053635;28;20192;-74
2022/07/24 04:44:07;;;;;;;5.20;4.70;;;20.50;99.90;;;;;;5053512;28;20645;-75
2022/07/24 04:46:33;;;;;;;4.60;4.20;;;20.50;99.90;;;;;;5053482;28;20327;-75
2022/07/24 04:49:00;;;;;;;4.97;4.47;;;20.50;99.90;;;;;;5053716;28;20662;-75
2022/07/24 04:51:26;;;;;;;5.10;4.70;;;20.60;99.90;;;;;;5053609;28;20161;-75
2022/07/24 04:53:55;;;;;;;4.87;4.47;;;20.70;99.90;;;;;;5053574;28;20654;-75
2022/07/24 04:56:21;;;;;;;5.93;4.90;;;20.70;99.90;;;;;;5051992;28;20236;-75
2022/07/24 04:58:47;;;;;;;5.47;4.40;;;20.70;99.90;;;;;;5053573;28;20594;-75
2022/07/24 05:01:13;;;;;;;5.60;5.10;;;20.70;99.90;;;;;;5052501;28;20575;-75
2022/07/24 05:03:40;;;;;;;6.40;4.50;;;20.80;99.90;;;;;;5053313;28;20594;-75
2022/07/24 05:06:06;;;;;;;5.30;4.80;;;20.90;99.90;;;;;;5053093;28;20919;-75
2022/07/24 05:08:32;;;;;;;5.03;4.53;;;20.90;99.90;;;;;;5053364;28;20595;-74
2022/07/24 05:10:57;;;;;;;7.07;5.17;;;20.90;99.90;;;;;;5053179;28;21018;-75
2022/07/24 05:13:24;;;;;;;4.77;4.23;;;21.00;99.90;;;;;;5052052;28;20173;-75
2022/07/24 05:15:49;;;;;;;4.67;4.27;;;21.00;99.90;;;;;;5052763;28;20177;-75
2022/07/24 05:18:15;;;;;;;4.97;4.57;;;21.00;99.90;;;;;;5053028;28;20595;-75
2022/07/24 05:20:41;;;;;;;6.17;5.43;;;21.10;99.90;;;;;;5052883;28;20169;-75
2022/07/24 05:23:07;;;;;;;5.77;4.10;;;21.20;99.90;;;;;;5053167;28;20169;-75
2022/07/24 05:25:33;;;;;;;4.23;3.83;;;21.30;99.90;;;;;;5051543;28;20169;-75
2022/07/24 05:27:58;;;;;;;4.73;4.30;;;21.30;99.90;;;;;;5052765;28;20228;-75
2022/07/24 05:30:24;;;;;;;5.40;4.90;;;21.40;99.90;;;;;;5052824;28;20624;-75
2022/07/24 05:32:50;;;;;;;5.20;4.70;;;21.40;99.90;;;;;;5052986;28;20172;-75
2022/07/24 05:35:16;;;;;;;4.07;3.67;;;21.50;99.90;;;;;;5052515;28;20228;-75
2022/07/24 05:37:41;;;;;;;4.23;3.93;;;21.50;99.90;;;;;;5052837;28;20184;-75
2022/07/24 05:40:07;;;;;;;4.70;4.30;;;21.60;99.90;;;;;;5052582;28;20157;-75
2022/07/24 05:42:33;;;;;;;4.40;3.93;;;21.70;99.90;;;;;;5052844;28;20196;-75
2022/07/24 05:44:59;;;;;;;4.77;4.00;;;21.80;99.90;;;;;;5051294;28;20979;-75
2022/07/24 05:47:25;;;;;;;4.33;3.93;;;21.90;99.90;;;;;;5052532;28;20216;-75
2022/07/24 05:49:51;;;;;;;5.47;4.43;;;22.00;99.90;;;;;;5052309;28;20629;-75
2022/07/24 05:52:16;;;;;;;4.67;4.27;;;22.10;99.90;;;;;;5052552;28;20219;-75
2022/07/24 05:54:42;;;;;;;5.10;4.60;;;22.20;99.90;;;;;;5051030;28;20243;-75
2022/07/24 05:57:08;;;;;;;5.47;4.67;;;22.30;99.90;;;;;;5051256;28;20184;-75
2022/07/24 05:59:34;;;;;;;4.43;4.03;;;22.50;99.90;;;;;;5052349;28;20649;-75
2022/07/24 06:02:02;;;;;;;4.57;3.87;;;22.80;99.90;;;;;;5052254;28;20169;-75
2022/07/24 06:04:27;;;;;;;3.83;3.53;;;23.20;99.90;;;;;;5052109;28;20897;-75
2022/07/24 06:06:53;;;;;;;4.73;4.33;;;23.40;99.90;;;;;;5052021;28;20753;-75
2022/07/24 06:09:19;;;;;;;4.10;3.70;;;23.80;99.90;;;;;;5032317;28;20528;-75
2022/07/24 06:11:45;;;;;;;3.80;3.50;;;24.30;99.90;;;;;;5031931;28;20169;-75
2022/07/24 06:14:10;;;;;;;4.23;3.80;;;25.00;99.90;;;;;;5030202;28;20236;-74
2022/07/24 06:16:36;;;;;;;3.87;3.13;;;25.70;99.90;;;;;;5031838;28;20254;-73
2022/07/24 06:19:02;;;;;;;3.43;3.13;;;26.50;99.90;;;;;;5031015;28;20174;-73
2022/07/24 06:21:28;;;;;;;3.77;3.47;;;27.20;99.90;;;;;;5032005;28;20173;-74
2022/07/24 06:23:53;;;;;;;3.20;2.90;;;28.00;99.90;;;;;;5032119;28;20170;-73
2022/07/24 06:26:19;;;;;;;3.80;3.50;;;28.80;99.90;;;;;;5031380;28;20170;-74
2022/07/24 06:28:45;;;;;;;2.83;2.40;;;29.30;99.90;;;;;;5032062;28;20174;-73
2022/07/24 06:31:10;;;;;;;3.00;2.70;;;29.80;99.90;;;;;;5031742;28;20174;-73
2022/07/24 06:33:36;;;;;;;3.47;3.03;;;30.40;99.30;;;;;;5031738;28;20688;-73
2022/07/24 06:36:02;;;;;;;2.67;2.47;;;31.10;97.70;;;;;;5031443;28;20173;-73
2022/07/24 06:38:28;;;;;;;3.77;3.13;;;31.70;97.20;;;;;;5031863;28;20240;-73
2022/07/24 06:40:53;;;;;;;2.83;2.63;;;32.50;95.40;;;;;;5031685;28;20172;-73
2022/07/24 06:43:19;;;;;;;6.70;2.70;;;32.80;92.80;;;;;;5031731;28;20252;-73
2022/07/24 06:45:45;;;;;;;3.37;2.80;;;33.30;92.60;;;;;;5031396;28;20265;-73
2022/07/24 06:48:11;;;;;;;4.70;3.27;;;33.80;91.70;;;;;;5031695;28;20204;-73
2022/07/24 06:50:36;;;;;;;2.83;2.53;;;34.50;90.30;;;;;;5031433;28;20269;-73
2022/07/24 06:53:02;;;;;;;3.40;2.43;;;34.70;86.50;;;;;;5031334;28;20540;-74
2022/07/24 06:55:28;;;;;;;3.37;2.67;;;35.00;81.00;;;;;;5028175;28;20259;-74
2022/07/24 06:57:54;;;;;;;3.20;2.63;;;35.20;80.40;;;;;;5031073;28;20284;-75
2022/07/24 07:00:20;;;;;;;3.53;2.30;;;35.40;76.20;;;;;;5031205;28;20173;-74
2022/07/24 07:02:45;;;;;;;2.67;2.00;;;35.70;76.10;;;;;;5030237;28;20207;-74
2022/07/24 07:05:11;;;;;;;3.00;2.70;;;36.20;75.20;;;;;;5031431;28;20170;-74
2022/07/24 07:07:38;;;;;;;3.03;2.23;;;36.60;72.90;;;;;;5023572;28;20198;-74
2022/07/24 07:10:05;;;;;;;2.60;2.40;;;37.10;71.60;;;;;;5031370;28;20201;-74
2022/07/24 07:12:31;;;;;;;2.40;2.17;;;37.60;70.20;;;;;;5030248;28;20583;-75
2022/07/24 07:14:59;;;;;;;2.80;2.40;;;38.20;67.90;;;;;;5029990;28;20963;-74
2022/07/24 07:17:26;;;;;;;2.30;1.97;;;38.60;65.80;;;;;;5031307;28;20189;-74
2022/07/24 07:19:51;;;;;;;3.10;2.83;;;39.10;64.00;;;;;;5030097;28;20565;-75
2022/07/24 07:22:17;;;;;;;2.30;2.10;;;39.70;62.10;;;;;;5028183;28;20611;-76
2022/07/24 07:24:43;;;;;;;2.43;2.23;;;40.10;59.90;;;;;;5032579;28;20272;-75
2022/07/24 07:27:09;;;;;;;2.90;1.97;;;40.50;58.40;;;;;;5034913;28;20209;-74
2022/07/24 07:29:34;;;;;;;2.03;1.83;;;40.80;57.30;;;;;;5035330;28;20180;-75
2022/07/24 07:32:00;;;;;;;2.30;2.10;;;41.20;56.10;;;;;;5035189;28;20172;-75
2022/07/24 07:34:26;;;;;;;3.80;1.87;;;41.50;54.80;;;;;;5034632;28;20194;-74
2022/07/24 07:36:53;;;;;;;2.40;2.20;;;41.80;53.50;;;;;;5035014;28;21161;-74
2022/07/24 07:39:18;;;;;;;2.07;1.87;;;42.10;53.10;;;;;;5022186;28;20170;-74
2022/07/24 07:41:44;;;;;;;2.53;2.10;;;42.50;51.70;;;;;;5032470;28;20597;-73
2022/07/24 07:44:11;;;;;;;2.70;2.00;;;42.80;50.70;;;;;;5034852;28;20177;-74
2022/07/24 07:46:37;;;;;;;2.37;1.70;;;42.90;49.60;;;;;;5034880;28;20189;-74
2022/07/24 07:49:03;;;;;;;2.13;1.80;;;43.10;49.10;;;;;;5034898;28;21177;-75
2022/07/24 07:51:29;;;;;;;2.00;1.77;;;43.30;48.00;;;;;;5034882;28;20526;-75
2022/07/24 07:53:55;;;;;;;2.83;2.50;;;43.50;47.60;;;;;;5034779;28;20618;-74
2022/07/24 07:56:21;;;;;;;2.07;1.87;;;43.80;47.10;;;;;;5033358;28;20720;-74
2022/07/24 07:58:46;;;;;;;2.30;1.80;;;43.90;46.00;;;;;;5034531;28;20154;-73
2022/07/24 08:01:18;;;;;;;3.67;2.10;;;44.00;44.90;;;;;;5034700;28;20625;-73
2022/07/24 08:03:44;;;;;;;3.20;2.23;;;43.80;43.30;;;;;;5034750;28;20170;-77
2022/07/24 08:06:10;;;;;;;2.30;2.10;;;43.80;43.70;;;;;;5033220;28;21142;-73
2022/07/24 08:08:35;;;;;;;2.27;1.90;;;44.00;43.70;;;;;;5040112;28;20181;-74
2022/07/24 08:11:01;;;;;;;4.33;1.80;;;44.10;43.30;;;;;;5038368;28;20599;-73
2022/07/24 08:13:27;;;;;;;3.47;2.33;;;44.20;42.80;;;;;;5033623;28;20231;-73
2022/07/24 08:15:53;;;;;;;2.60;1.67;;;44.40;42.30;;;;;;5044069;28;20156;-74
2022/07/24 08:18:18;;;;;;;2.40;2.20;;;44.20;41.60;;;;;;5050144;28;20676;-72
2022/07/24 08:20:44;;;;;;;3.37;2.00;;;44.20;41.40;;;;;;5043970;28;20177;-73
2022/07/24 08:23:10;;;;;;;2.10;1.73;;;44.30;40.90;;;;;;5045415;28;20200;-74
2022/07/24 08:25:36;;;;;;;2.70;1.93;;;44.40;40.90;;;;;;5050056;28;20185;-73
2022/07/24 08:28:02;;;;;;;2.50;2.00;;;44.60;40.90;;;;;;5042266;28;20624;-73
2022/07/24 08:30:27;;;;;;;2.40;2.20;;;44.80;40.50;;;;;;5033282;28;20402;-74
2022/07/24 08:32:53;;;;;;;1.93;1.73;;;44.90;40.00;;;;;;5035796;28;20165;-74
2022/07/24 08:35:20;;;;;;;2.00;1.67;;;45.10;39.90;;;;;;5038368;28;20581;-73
2022/07/24 08:37:46;;;;;;;2.40;1.93;;;45.20;39.40;;;;;;5017339;28;20267;-74
2022/07/24 08:40:13;;;;;;;2.20;2.00;;;45.40;39.40;;;;;;5051412;28;20614;-74
2022/07/24 08:42:39;;;;;;;3.43;1.87;;;45.60;38.90;;;;;;5034638;28;20658;-74
2022/07/24 08:45:06;;;;;;;2.53;2.20;;;45.70;38.20;;;;;;5029673;28;20650;-73
2022/07/24 08:47:34;;;;;;;2.50;1.80;;;45.90;38.00;;;;;;5033426;28;20637;-73
2022/07/24 08:50:02;;;;;;;2.20;1.80;;;45.90;37.30;;;;;;5031879;28;20622;-73
2022/07/24 08:52:28;;;;;;;2.40;1.90;;;46.00;36.90;;;;;;5029640;28;20627;-74
2022/07/24 08:54:54;;;;;;;3.30;2.03;;;46.10;36.80;;;;;;5028996;28;20588;-74
2022/07/24 08:57:21;;;;;;;2.40;2.10;;;46.10;36.40;;;;;;5031921;28;20209;-74
2022/07/24 08:59:47;;;;;;;2.20;1.73;;;46.10;36.20;;;;;;5027599;28;21263;-74
2022/07/24 09:02:13;;;;;;;3.00;2.53;;;46.20;35.90;;;;;;5030758;28;20594;-74
2022/07/24 09:04:41;;;;;;;2.40;2.20;;;46.20;35.40;;;;;;5032895;28;20202;-73
2022/07/24 09:07:09;;;;;;;2.60;1.73;;;46.10;35.10;;;;;;5033356;28;20592;-73
2022/07/24 09:09:40;;;;;;;2.47;2.27;;;46.10;35.20;;;;;;5032964;28;20573;-74
2022/07/24 09:12:13;;;;;;;2.27;1.83;;;46.20;35.10;;;;;;5030684;28;20577;-73
2022/07/24 09:14:40;;;;;;;3.63;2.10;;;46.10;34.50;;;;;;5029923;28;20584;-73
2022/07/24 09:17:14;;;;;;;5.23;2.00;;;46.10;34.80;;;;;;5033122;28;21168;-73
2022/07/24 09:19:52;;;;;;;3.07;1.93;;;46.10;34.20;;;;;;5031788;28;20572;-74
2022/07/24 09:22:40;;;;;;;2.80;2.20;;;46.20;34.80;;;;;;5031774;28;20686;-73
2022/07/24 09:25:17;;;;;;;2.93;1.80;;;46.30;35.20;;;;;;5032555;28;20699;-73
2022/07/24 09:27:52;;;;;;;3.13;2.70;;;46.40;34.90;;;;;;5030304;28;20624;-74
2022/07/24 09:30:31;;;;;;;2.20;1.90;;;46.50;34.20;;;;;;5013114;28;20581;-73
2022/07/24 09:32:59;;;;;;;4.10;2.70;;;46.60;34.00;;;;;;5013329;28;20557;-75
2022/07/24 09:35:40;;;;;;;2.97;2.67;;;46.60;33.80;;;;;;5030912;28;21028;-74
2022/07/24 09:38:12;;;;;;;2.57;2.30;;;46.70;33.00;;;;;;5033098;28;20909;-74
2022/07/24 09:40:44;;;;;;;2.50;1.80;;;46.70;32.90;;;;;;5031490;28;20665;-73
2022/07/24 09:43:23;;;;;;;2.20;2.00;;;46.50;33.00;;;;;;5032661;28;20573;-74
2022/07/24 09:46:05;;;;;;;2.43;2.20;;;46.40;32.80;;;;;;5031365;28;21000;-74
2022/07/24 09:48:32;;;;;;;5.43;2.80;;;46.30;30.80;;;;;;5030928;28;20631;-74
2022/07/24 09:51:04;;;;;;;4.17;2.60;;;46.00;32.60;;;;;;5032541;28;20553;-74
2022/07/24 09:53:32;;;;;;;3.47;2.50;;;46.00;33.10;;;;;;5032745;28;20588;-73
2022/07/24 09:56:04;;;;;;;3.80;3.13;;;46.20;32.90;;;;;;5032230;28;20569;-74
2022/07/24 09:58:31;;;;;;;3.10;2.07;;;46.20;32.90;;;;;;5031264;28;20580;-74
2022/07/24 10:01:00;;;;;;;2.83;2.47;;;46.30;32.20;;;;;;5030999;28;20581;-75
2022/07/24 10:03:29;;;;;;;3.30;2.07;;;46.40;32.00;;;;;;5032507;28;20932;-74
2022/07/24 10:06:01;;;;;;;3.27;2.23;;;46.30;32.00;;;;;;5031922;28;20630;-73
2022/07/24 10:08:28;;;;;;;3.73;2.10;;;46.40;31.70;;;;;;5032143;28;20591;-75
2022/07/24 10:10:54;;;;;;;3.07;2.03;;;46.40;31.60;;;;;;5031117;28;20555;-75
2022/07/24 10:13:21;;;;;;;2.13;1.90;;;46.30;31.20;;;;;;5030519;28;20591;-81
2022/07/24 10:16:07;;;;;;;2.70;1.80;;;46.20;31.30;;;;;;5030452;28;20588;-81
2022/07/24 10:18:51;;;;;;;2.70;2.50;;;46.00;31.00;;;;;;5032765;28;20654;-82
2022/07/24 10:21:21;;;;;;;3.03;2.40;;;45.60;31.70;;;;;;5032712;28;20648;-83
2022/07/24 10:23:58;;;;;;;2.83;1.90;;;45.40;32.20;;;;;;5035469;28;20572;-82
2022/07/24 10:26:45;;;;;;;2.33;2.13;;;45.40;32.10;;;;;;5037162;28;20961;-82
2022/07/24 10:29:15;;;;;;;3.83;2.17;;;45.50;32.00;;;;;;5033004;28;20612;-81
2022/07/24 10:31:43;;;;;;;2.93;2.30;;;45.50;32.10;;;;;;5037492;28;20564;-81
2022/07/24 10:34:24;;;;;;;3.70;2.30;;;45.50;31.90;;;;;;5038154;28;20587;-81
2022/07/24 10:36:57;;;;;;;2.40;2.20;;;45.60;31.60;;;;;;5038642;28;20643;-82
2022/07/24 10:39:36;;;;;;;2.10;1.90;;;45.40;31.70;;;;;;5036347;28;20584;-82
2022/07/24 10:42:06;;;;;;;1.90;1.70;;;45.40;31.50;;;;;;5032486;28;20893;-82
2022/07/24 10:44:32;;;;;;;2.13;1.87;;;45.40;32.10;;;;;;5030387;28;20627;-82
2022/07/24 10:47:01;;;;;;;2.50;2.30;;;45.30;31.90;;;;;;5030687;28;20662;-82
2022/07/24 10:49:49;;;;;;;2.77;2.37;;;45.20;31.40;;;;;;5031996;28;20626;-82
2022/07/24 10:52:32;;;;;;;1.90;1.70;;;45.20;31.40;;;;;;5031735;28;20557;-82
2022/07/24 10:55:23;;;;;;;3.10;1.97;;;45.20;31.30;;;;;;5030111;28;21151;-82
2022/07/24 10:58:09;;;;;;;3.20;2.00;;;45.00;32.00;;;;;;5031791;28;20942;-82
2022/07/24 11:00:41;;;;;;;2.43;2.23;;;45.00;31.70;;;;;;5012768;28;20646;-82
2022/07/24 11:03:21;;;;;;;5.03;2.07;;;44.90;31.20;;;;;;5031530;28;20611;-82
2022/07/24 11:06:09;;;;;;;2.60;2.40;;;44.80;31.00;;;;;;5031451;28;21045;-82
2022/07/24 11:08:39;;;;;;;2.70;2.50;;;44.50;31.00;;;;;;5032177;28;20568;-82
2022/07/24 11:11:14;;;;;;;2.57;2.37;;;43.90;30.60;;;;;;5031367;28;20569;-82
2022/07/24 11:13:45;;;;;;;1.97;1.77;;;43.60;31.80;;;;;;5031688;28;20633;-82
2022/07/24 11:16:11;;;;;;;2.53;2.10;;;43.50;31.90;;;;;;5037073;28;20584;-82
2022/07/24 11:18:37;;;;;;;2.43;2.23;;;43.50;31.80;;;;;;5031628;28;21092;-82
2022/07/24 11:21:04;;;;;;;2.00;1.70;;;43.50;31.80;;;;;;5031334;28;20173;-82
2022/07/24 11:23:30;;;;;;;2.60;2.20;;;43.50;31.80;;;;;;5031467;28;20945;-82
2022/07/24 11:26:31;;;;;;;4.77;2.50;;;43.60;32.20;;;;;;5031027;28;20615;-82
2022/07/24 11:29:32;;;;;;;2.43;1.70;;;43.60;32.20;;;;;;4999378;28;20927;-82
2022/07/24 11:32:27;;;;;;;3.20;2.60;;;43.60;30.50;;;;;;4982385;28;20604;-82
2022/07/24 11:34:53;;;;;;;3.83;1.93;;;43.30;31.10;;;;;;5029164;28;20595;-82
2022/07/24 11:37:19;;;;;;;3.33;3.03;;;43.00;31.50;;;;;;5031136;28;20596;-82
2022/07/24 11:39:46;;;;;;;3.50;2.57;;;42.90;31.80;;;;;;5031240;28;20174;-81
2022/07/24 11:42:15;;;;;;;2.77;2.20;;;42.80;32.00;;;;;;5031003;28;20658;-81
2022/07/24 11:44:47;;;;;;;3.40;3.10;;;42.70;32.00;;;;;;5029787;28;20631;-81
2022/07/24 11:47:22;;;;;;;2.50;2.30;;;42.80;32.10;;;;;;5031160;28;20993;-82
2022/07/24 11:49:56;;;;;;;2.80;2.27;;;42.80;32.20;;;;;;5031125;28;20974;-82
2022/07/24 11:52:26;;;;;;;3.53;2.60;;;42.70;32.40;;;;;;5036564;28;20565;-83
2022/07/24 11:54:54;;;;;;;2.60;2.33;;;42.70;32.20;;;;;;5031130;28;20643;-82
2022/07/24 11:57:29;;;;;;;3.13;1.93;;;42.70;32.30;;;;;;5030956;28;20693;-82
2022/07/24 11:59:55;;;;;;;3.60;2.70;;;42.60;32.40;;;;;;5030820;28;20568;-81
2022/07/24 12:02:22;;;;;;;4.43;2.27;;;42.60;32.00;;;;;;5031099;28;20579;-82
2022/07/24 12:04:49;;;;;;;2.40;2.20;;;42.50;31.50;;;;;;5030793;28;20703;-82
2022/07/24 12:07:19;;;;;;;4.07;2.53;;;42.00;31.50;;;;;;5030723;28;20647;-82
2022/07/24 12:09:46;;;;;;;3.20;1.90;;;41.80;31.60;;;;;;5029950;28;20580;-81
2022/07/24 12:12:18;;;;;;;2.80;2.10;;;41.50;31.90;;;;;;5033331;28;20582;-81
2022/07/24 12:14:44;;;;;;;2.70;2.23;;;41.30;32.20;;;;;;5034362;28;20634;-81
2022/07/24 12:17:10;;;;;;;2.57;2.37;;;41.20;32.30;;;;;;5034167;28;21014;-82
2022/07/24 12:19:36;;;;;;;2.20;2.00;;;41.20;32.10;;;;;;5034392;28;20623;-81
2022/07/24 12:22:02;;;;;;;2.13;1.93;;;41.00;32.90;;;;;;5034301;28;20174;-82
2022/07/24 12:24:31;;;;;;;3.57;2.50;;;40.90;32.90;;;;;;5032731;28;20574;-82
2022/07/24 12:26:58;;;;;;;5.53;2.33;;;40.80;33.00;;;;;;5033967;28;20960;-81
2022/07/24 12:29:26;;;;;;;2.53;2.30;;;40.80;33.00;;;;;;5039793;28;20655;-82
2022/07/24 12:32:17;;;;;;;5.00;2.37;;;40.70;32.70;;;;;;5034078;28;20584;-81
2022/07/24 12:34:45;;;;;;;4.10;2.70;;;40.60;33.70;;;;;;5032777;28;20576;-82
2022/07/24 12:37:16;;;;;;;3.00;2.43;;;40.50;33.10;;;;;;5033888;28;20592;-81
2022/07/24 12:39:50;;;;;;;2.63;2.43;;;40.40;33.40;;;;;;5032707;28;20576;-82
2022/07/24 12:42:17;;;;;;;4.50;2.83;;;40.30;32.90;;;;;;5033927;28;20603;-82
2022/07/24 12:44:45;;;;;;;2.53;2.33;;;39.90;32.50;;;;;;5033680;28;20624;-82
2022/07/24 12:47:12;;;;;;;2.80;2.60;;;39.50;33.50;;;;;;5033894;28;20603;-82
2022/07/24 12:49:43;;;;;;;2.50;2.13;;;39.30;33.50;;;;;;5033802;28;20659;-82
2022/07/24 12:52:27;;;;;;;2.30;2.10;;;39.00;33.40;;;;;;5033621;28;20583;-81